createdAt,value
2022-12-04T00:02:19.972Z,35.80
2022-12-04T00:04:53.495Z,33.22
2022-12-04T00:07:24.393Z,36.42
2022-12-04T00:09:57.532Z,35.33
2022-12-04T00:12:30.979Z,37.38
2022-12-04T00:15:24.938Z,32.22
2022-12-04T00:17:52.787Z,33.15
2022-12-04T00:20:26.460Z,32.20
2022-12-04T00:22:57.287Z,34.03
2022-12-04T00:25:28.142Z,33.83
2022-12-04T00:28:01.301Z,34.05
2022-12-04T00:30:33.422Z,29.55
2022-12-04T00:33:04.306Z,35.17
2022-12-04T00:35:37.911Z,34.20
2022-12-04T00:38:08.718Z,29.95
2022-12-04T00:40:39.584Z,32.65
2022-12-04T00:43:12.873Z,34.97
2022-12-04T00:45:43.683Z,35.63
2022-12-04T00:48:14.654Z,34.75
2022-12-04T00:50:48.529Z,31.98
2022-12-04T00:53:20.520Z,35.70
2022-12-04T00:55:51.341Z,34.63
2022-12-04T00:58:22.318Z,31.45
2022-12-04T01:00:53.556Z,32.42
2022-12-04T01:03:24.434Z,37.03
2022-12-04T01:05:59.073Z,31.40
2022-12-04T01:08:30.127Z,33.42
2022-12-04T01:11:01.322Z,33.63
2022-12-04T01:13:32.064Z,31.95
2022-12-04T01:16:02.979Z,35.88
2022-12-04T01:18:33.838Z,35.63
2022-12-04T01:21:08.542Z,31.33
2022-12-04T01:23:39.349Z,32.95
2022-12-04T01:26:13.182Z,33.17
2022-12-04T01:28:44.464Z,33.33
2022-12-04T01:31:18.865Z,32.15
2022-12-04T01:33:52.096Z,34.53
2022-12-04T01:36:27.584Z,36.60
2022-12-04T01:38:59.351Z,35.50
2022-12-04T01:41:34.797Z,32.97
2022-12-04T01:44:11.095Z,36.45
2022-12-04T01:46:42.719Z,32.28
2022-12-04T01:49:17.789Z,33.97
2022-12-04T01:51:54.483Z,35.65
2022-12-04T01:54:30.458Z,30.75
2022-12-04T01:57:06.937Z,31.45
2022-12-04T01:59:42.654Z,31.95
2022-12-04T02:02:19.049Z,36.15
2022-12-04T02:04:56.208Z,29.13
2022-12-04T02:07:30.312Z,29.38
2022-12-04T02:10:06.352Z,31.92
2022-12-04T02:12:44.986Z,32.58
2022-12-04T02:15:22.814Z,29.83
2022-12-04T02:18:01.190Z,29.55
2022-12-04T02:20:40.454Z,28.23
2022-12-04T02:23:40.503Z,30.60
2022-12-04T02:26:27.966Z,26.52
2022-12-04T02:29:09.076Z,30.42
2022-12-04T02:31:45.748Z,29.63
2022-12-04T02:34:21.020Z,31.20
2022-12-04T02:36:57.662Z,27.20
2022-12-04T02:39:34.845Z,30.55
2022-12-04T02:42:15.601Z,27.55
2022-12-04T02:44:52.427Z,28.73
2022-12-04T02:47:26.627Z,28.25
2022-12-04T02:50:01.023Z,28.77
2022-12-04T02:52:38.488Z,28.23
2022-12-04T02:55:17.420Z,25.27
2022-12-04T02:57:52.872Z,26.48
2022-12-04T03:00:27.946Z,25.63
2022-12-04T03:03:01.879Z,26.45
2022-12-04T03:05:45.958Z,24.25
2022-12-04T03:08:22.221Z,26.38
2022-12-04T03:10:57.569Z,24.27
2022-12-04T03:13:35.355Z,26.95
2022-12-04T03:16:13.474Z,26.38
2022-12-04T03:18:47.875Z,27.23
2022-12-04T03:21:23.207Z,25.52
2022-12-04T03:23:59.633Z,24.70
2022-12-04T03:26:37.147Z,25.33
2022-12-04T03:29:14.959Z,24.38
2022-12-04T03:31:51.820Z,25.45
2022-12-04T03:34:29.636Z,25.50
2022-12-04T03:37:06.161Z,23.90
2022-12-04T03:39:40.643Z,23.13
2022-12-04T03:42:18.958Z,25.77
2022-12-04T03:44:55.795Z,25.35
2022-12-04T03:47:36.417Z,24.50
2022-12-04T03:50:16.478Z,25.30
2022-12-04T03:52:51.959Z,27.70
2022-12-04T03:55:27.860Z,26.92
2022-12-04T03:58:04.994Z,24.67
2022-12-04T04:00:39.587Z,27.30
2022-12-04T04:03:19.010Z,25.80
2022-12-04T04:05:55.558Z,25.50
2022-12-04T04:08:34.185Z,27.55
2022-12-04T04:11:13.272Z,26.95
2022-12-04T04:14:01.638Z,23.15
2022-12-04T04:16:50.708Z,29.63
2022-12-04T04:19:37.560Z,26.40
2022-12-04T04:22:25.178Z,24.92
2022-12-04T04:25:02.343Z,27.08
2022-12-04T04:27:33.555Z,30.63
2022-12-04T04:30:04.633Z,26.00
2022-12-04T04:32:40.958Z,27.20
2022-12-04T04:35:21.977Z,25.70
2022-12-04T04:37:59.796Z,26.73
2022-12-04T04:40:37.270Z,26.88
2022-12-04T04:43:13.639Z,25.33
2022-12-04T04:45:50.392Z,26.90
2022-12-04T04:48:28.158Z,24.70
2022-12-04T04:51:03.049Z,24.67
2022-12-04T04:53:39.766Z,27.52
2022-12-04T04:56:11.960Z,26.20
2022-12-04T04:58:42.991Z,24.02
2022-12-04T05:01:17.083Z,28.92
2022-12-04T05:03:48.156Z,24.55
2022-12-04T05:06:21.788Z,21.63
2022-12-04T05:08:52.547Z,23.45
2022-12-04T05:11:23.936Z,25.30
2022-12-04T05:13:55.458Z,23.30
2022-12-04T05:16:27.339Z,24.83
2022-12-04T05:19:10.666Z,23.55
2022-12-04T05:21:44.284Z,26.02
2022-12-04T05:24:17.688Z,24.92
2022-12-04T05:26:48.449Z,25.45
2022-12-04T05:29:19.257Z,23.27
2022-12-04T05:31:50.074Z,18.90
2022-12-04T05:34:21.297Z,20.08
2022-12-04T05:36:55.442Z,20.48
2022-12-04T05:39:27.714Z,23.27
2022-12-04T05:42:01.482Z,23.70
2022-12-04T05:44:32.478Z,22.23
2022-12-04T05:47:03.437Z,21.88
2022-12-04T05:49:36.079Z,21.35
2022-12-04T05:52:10.579Z,19.55
2022-12-04T05:54:41.666Z,20.92
2022-12-04T05:57:12.457Z,22.33
2022-12-04T05:59:43.553Z,20.25
2022-12-04T06:02:14.560Z,16.73
2022-12-04T06:04:45.482Z,21.38
2022-12-04T06:07:21.436Z,18.10
2022-12-04T06:09:52.366Z,20.70
2022-12-04T06:12:23.152Z,17.52
2022-12-04T06:14:53.984Z,21.23
2022-12-04T06:17:25.569Z,23.10
2022-12-04T06:19:56.791Z,20.40
2022-12-04T06:22:30.413Z,17.10
2022-12-04T06:25:01.594Z,22.48
2022-12-04T06:27:32.695Z,20.48
2022-12-04T06:30:04.535Z,18.23
2022-12-04T06:32:35.403Z,18.63
2022-12-04T06:35:06.994Z,18.40
2022-12-04T06:37:40.344Z,16.73
2022-12-04T06:40:12.336Z,20.73
2022-12-04T06:42:43.105Z,20.67
2022-12-04T06:45:15.292Z,19.13
2022-12-04T06:47:46.075Z,17.38
2022-12-04T06:50:17.182Z,18.98
2022-12-04T06:52:51.547Z,17.30
2022-12-04T06:55:23.640Z,16.48
2022-12-04T06:57:54.415Z,16.20
2022-12-04T07:00:25.636Z,18.25
2022-12-04T07:02:57.620Z,19.92
2022-12-04T07:05:30.223Z,15.90
2022-12-04T07:08:03.688Z,18.67
2022-12-04T07:10:34.483Z,26.83
2022-12-04T07:13:06.911Z,16.30
2022-12-04T07:15:40.391Z,19.90
2022-12-04T07:18:11.177Z,18.67
2022-12-04T07:20:43.444Z,18.10
2022-12-04T07:23:16.863Z,20.10
2022-12-04T07:25:47.636Z,20.35
2022-12-04T07:28:18.411Z,19.30
2022-12-04T07:30:49.230Z,19.25
2022-12-04T07:33:20.046Z,17.75
2022-12-04T07:35:58.627Z,20.50
2022-12-04T07:38:32.869Z,17.95
2022-12-04T07:41:05.458Z,20.95
2022-12-04T07:43:37.250Z,19.15
2022-12-04T07:46:09.978Z,21.17
2022-12-04T07:48:42.288Z,19.17
2022-12-04T07:51:17.638Z,18.02
2022-12-04T07:53:51.735Z,18.88
2022-12-04T07:56:23.354Z,18.70
2022-12-04T07:58:54.193Z,18.30
2022-12-04T08:01:27.821Z,18.00
2022-12-04T08:04:00.529Z,18.10
2022-12-04T08:06:33.411Z,17.50
2022-12-04T08:09:10.577Z,19.85
2022-12-04T08:11:41.722Z,18.52
2022-12-04T08:14:15.058Z,18.60
2022-12-04T08:16:52.324Z,20.73
2022-12-04T08:19:26.062Z,18.85
2022-12-04T08:21:58.566Z,18.45
2022-12-04T08:24:32.027Z,20.67
2022-12-04T08:27:02.860Z,22.65
2022-12-04T08:29:33.676Z,19.63
2022-12-04T08:32:05.136Z,21.20
2022-12-04T08:34:36.155Z,22.10
2022-12-04T08:37:06.947Z,21.15
2022-12-04T08:39:40.291Z,20.13
2022-12-04T08:42:11.042Z,19.02
2022-12-04T08:44:41.869Z,19.20
2022-12-04T08:47:12.642Z,20.45
2022-12-04T08:49:43.460Z,19.90
2022-12-04T08:52:14.326Z,22.15
2022-12-04T08:54:47.887Z,19.30
2022-12-04T08:57:20.000Z,20.02
2022-12-04T08:59:53.486Z,22.63
2022-12-04T09:02:25.147Z,19.85
2022-12-04T09:04:56.296Z,22.13
2022-12-04T09:07:27.259Z,23.02
2022-12-04T09:10:01.200Z,22.58
2022-12-04T09:12:32.682Z,24.45
2022-12-04T09:15:03.423Z,21.25
2022-12-04T09:17:34.188Z,23.33
2022-12-04T09:20:06.223Z,24.15
2022-12-04T09:23:02.307Z,24.35
2022-12-04T09:25:40.501Z,22.00
2022-12-04T09:28:11.526Z,23.90
2022-12-04T09:30:44.768Z,22.13
2022-12-04T09:33:16.169Z,21.63
2022-12-04T09:35:47.150Z,22.10
2022-12-04T09:38:18.081Z,21.15
2022-12-04T09:41:02.162Z,21.75
2022-12-04T09:43:38.138Z,22.17
2022-12-04T09:46:14.849Z,21.48
2022-12-04T09:48:51.226Z,21.13
2022-12-04T09:51:26.331Z,22.33
2022-12-04T09:54:01.991Z,22.40
2022-12-04T09:56:35.562Z,22.90
2022-12-04T09:59:13.842Z,22.85
2022-12-04T10:01:48.145Z,21.15
2022-12-04T10:04:19.360Z,20.30
2022-12-04T10:06:54.888Z,21.63
2022-12-04T10:09:30.226Z,21.50
2022-12-04T10:12:12.343Z,21.98
2022-12-04T10:14:56.349Z,19.23
2022-12-04T10:17:47.843Z,21.58
2022-12-04T10:20:36.332Z,22.10
2022-12-04T10:23:15.905Z,22.10
2022-12-04T10:25:46.837Z,25.10
2022-12-04T10:28:27.229Z,22.35
2022-12-04T10:31:02.969Z,21.33
2022-12-04T10:33:40.001Z,21.63
2022-12-04T10:36:17.779Z,22.92
2022-12-04T10:38:54.093Z,22.63
2022-12-04T10:41:30.341Z,21.42
2022-12-04T10:44:03.896Z,19.23
2022-12-04T10:46:41.750Z,19.98
2022-12-04T10:49:20.199Z,23.23
2022-12-04T10:51:51.707Z,22.63
2022-12-04T10:54:25.117Z,22.55
2022-12-04T10:56:58.623Z,20.23
2022-12-04T10:59:33.008Z,18.77
2022-12-04T11:02:07.514Z,20.02
2022-12-04T11:04:40.242Z,21.52
2022-12-04T11:07:22.894Z,22.08
2022-12-04T11:10:03.196Z,19.25
2022-12-04T11:12:34.433Z,22.70
2022-12-04T11:15:16.545Z,23.35
2022-12-04T11:17:47.616Z,20.13
2022-12-04T11:20:21.388Z,17.70
2022-12-04T11:22:57.720Z,21.00
2022-12-04T11:25:30.666Z,19.08
2022-12-04T11:28:05.810Z,21.85
2022-12-04T11:30:41.296Z,22.70
2022-12-04T11:33:21.922Z,24.42
2022-12-04T11:35:58.020Z,22.50
2022-12-04T11:38:40.680Z,22.45
2022-12-04T11:41:28.448Z,23.25
2022-12-04T11:44:02.157Z,22.80
2022-12-04T11:46:37.529Z,21.38
2022-12-04T11:49:08.645Z,26.88
2022-12-04T11:51:51.219Z,23.75
2022-12-04T11:54:34.050Z,19.85
2022-12-04T11:57:13.681Z,20.77
2022-12-04T12:00:00.126Z,20.08
2022-12-04T12:02:47.179Z,17.65
2022-12-04T12:06:00.104Z,19.90
2022-12-04T12:08:46.142Z,16.77
2022-12-04T12:11:24.592Z,21.30
2022-12-04T12:14:04.665Z,16.70
2022-12-04T12:16:51.656Z,21.30
2022-12-04T12:19:49.735Z,18.38
2022-12-04T12:22:31.322Z,19.08
2022-12-04T12:25:11.830Z,20.13
2022-12-04T12:28:14.175Z,18.63
2022-12-04T12:31:05.541Z,20.07
2022-12-04T12:33:42.450Z,18.80
2022-12-04T12:36:21.568Z,18.02
2022-12-04T12:38:58.987Z,18.73
2022-12-04T12:41:34.845Z,17.00
2022-12-04T12:44:09.891Z,16.70
2022-12-04T12:46:48.960Z,17.40
2022-12-04T12:49:26.206Z,17.45
2022-12-04T12:52:06.038Z,18.00
2022-12-04T12:54:50.847Z,18.33
2022-12-04T12:57:34.800Z,22.67
2022-12-04T13:00:10.092Z,18.25
2022-12-04T13:02:50.307Z,18.45
2022-12-04T13:05:27.787Z,17.42
2022-12-04T13:08:09.179Z,18.98
2022-12-04T13:10:46.637Z,17.40
2022-12-04T13:13:26.002Z,16.05
2022-12-04T13:16:02.109Z,17.10
2022-12-04T13:18:39.497Z,15.15
2022-12-04T13:21:13.342Z,18.50
2022-12-04T13:23:58.639Z,19.90
2022-12-04T13:26:49.526Z,16.67
2022-12-04T13:29:33.180Z,15.50
2022-12-04T13:32:12.047Z,19.45
2022-12-04T13:35:00.167Z,16.83
2022-12-04T13:37:45.393Z,21.20
2022-12-04T13:40:35.415Z,18.90
2022-12-04T13:43:39.806Z,17.63
2022-12-04T13:46:25.565Z,17.02
2022-12-04T13:48:56.919Z,20.08
2022-12-04T13:51:38.509Z,19.67
2022-12-04T13:54:26.171Z,19.58
2022-12-04T13:57:12.729Z,19.02
2022-12-04T13:59:47.654Z,17.30
2022-12-04T14:02:32.350Z,17.33
2022-12-04T14:05:07.678Z,17.05
2022-12-04T14:07:40.615Z,18.10
2022-12-04T14:10:31.452Z,19.90
2022-12-04T14:13:08.541Z,16.40
2022-12-04T14:15:40.201Z,14.98
2022-12-04T14:18:23.238Z,15.65
2022-12-04T14:21:03.149Z,17.30
2022-12-04T14:23:42.615Z,17.67
2022-12-04T14:26:37.425Z,16.90
2022-12-04T14:29:37.905Z,15.77
2022-12-04T14:32:18.539Z,16.13
2022-12-04T14:34:52.034Z,19.83
2022-12-04T14:37:28.226Z,16.00
2022-12-04T14:40:01.901Z,18.90
2022-12-04T14:42:39.214Z,18.67
2022-12-04T14:45:26.645Z,22.00
2022-12-04T14:48:26.687Z,20.27
2022-12-04T14:51:05.207Z,20.53
2022-12-04T14:53:44.398Z,19.40
2022-12-04T14:56:35.496Z,20.52
2022-12-04T14:59:10.114Z,19.08
2022-12-04T15:01:44.648Z,20.30
2022-12-04T15:04:26.733Z,19.70
2022-12-04T15:07:00.413Z,20.60
2022-12-04T15:09:44.523Z,20.60
2022-12-04T15:12:34.836Z,21.05
2022-12-04T15:15:14.395Z,21.53
2022-12-04T15:17:59.822Z,16.73
2022-12-04T15:20:37.545Z,20.02
2022-12-04T15:23:11.163Z,24.58
2022-12-04T15:25:47.016Z,23.67
2022-12-04T15:28:21.658Z,22.00
2022-12-04T15:30:55.372Z,22.80
2022-12-04T15:33:32.543Z,21.33
2022-12-04T15:36:06.098Z,17.43
2022-12-04T15:38:38.079Z,19.77
2022-12-04T15:41:09.101Z,19.93
2022-12-04T15:43:44.709Z,22.10
2022-12-04T15:46:17.008Z,20.23
2022-12-04T15:48:52.103Z,22.23
2022-12-04T15:51:24.602Z,22.97
2022-12-04T15:53:58.678Z,22.02
2022-12-04T15:56:32.057Z,25.17
2022-12-04T15:59:10.633Z,20.77
2022-12-04T16:01:42.906Z,21.70
2022-12-04T16:04:26.540Z,24.70
2022-12-04T16:06:57.287Z,22.42
2022-12-04T16:09:30.433Z,22.57
2022-12-04T16:12:03.345Z,24.65
2022-12-04T16:14:34.169Z,27.58
2022-12-04T16:17:06.560Z,24.63
2022-12-04T16:19:41.984Z,25.67
2022-12-04T16:22:19.337Z,27.08
2022-12-04T16:24:54.778Z,23.98
2022-12-04T16:27:27.057Z,27.30
2022-12-04T16:29:57.860Z,29.30
2022-12-04T16:32:32.872Z,25.13
2022-12-04T16:35:06.604Z,25.33
2022-12-04T16:37:37.928Z,24.00
2022-12-04T16:40:13.511Z,24.90
2022-12-04T16:42:47.145Z,24.73
2022-12-04T16:45:27.503Z,23.77
2022-12-04T16:48:00.972Z,28.58
2022-12-04T16:50:34.381Z,25.20
2022-12-04T16:53:06.858Z,23.93
2022-12-04T16:55:40.129Z,25.20
2022-12-04T16:58:10.932Z,28.10
2022-12-04T17:00:43.648Z,26.87
2022-12-04T17:03:21.523Z,29.33
2022-12-04T17:05:54.941Z,29.08
2022-12-04T17:08:26.531Z,28.30
2022-12-04T17:10:58.047Z,30.57
2022-12-04T17:13:28.837Z,29.47
2022-12-04T17:16:00.843Z,32.53
2022-12-04T17:18:31.984Z,31.40
2022-12-04T17:21:08.316Z,30.65
2022-12-04T17:23:39.591Z,31.13
2022-12-04T17:26:12.099Z,31.92
2022-12-04T17:28:43.370Z,34.70
2022-12-04T17:31:18.001Z,30.48
2022-12-04T17:33:51.989Z,29.37
2022-12-04T17:36:27.792Z,30.70
2022-12-04T17:39:01.568Z,31.10
2022-12-04T17:41:33.982Z,34.30
2022-12-04T17:44:04.740Z,33.20
2022-12-04T17:46:38.836Z,33.13
2022-12-04T17:49:14.054Z,35.55
2022-12-04T17:51:47.721Z,33.50
2022-12-04T17:54:18.729Z,31.83
2022-12-04T17:56:57.577Z,31.13
2022-12-04T17:59:29.040Z,32.63
2022-12-04T18:01:59.830Z,32.70
2022-12-04T18:04:36.174Z,31.85
2022-12-04T18:07:09.886Z,29.77
2022-12-04T18:09:40.739Z,33.37
2022-12-04T18:12:12.265Z,33.25
2022-12-04T18:14:43.526Z,33.10
2022-12-04T18:17:14.435Z,32.53
2022-12-04T18:19:45.792Z,28.47
2022-12-04T18:22:19.192Z,31.90
2022-12-04T18:24:50.034Z,33.80
2022-12-04T18:27:21.276Z,33.73
2022-12-04T18:29:52.038Z,33.97
2022-12-04T18:32:22.860Z,37.85
2022-12-04T18:34:53.853Z,36.22
2022-12-04T18:37:27.415Z,33.40
2022-12-04T18:40:02.128Z,32.15
2022-12-04T18:42:35.740Z,29.80
2022-12-04T18:45:07.251Z,32.93
2022-12-04T18:47:40.985Z,33.20
2022-12-04T18:50:13.427Z,33.00
2022-12-04T18:52:50.329Z,33.27
2022-12-04T18:55:25.732Z,30.83
2022-12-04T18:57:56.568Z,30.17
2022-12-04T19:00:27.302Z,38.20
2022-12-04T19:02:58.810Z,36.35
2022-12-04T19:05:29.704Z,38.35
2022-12-04T19:08:03.321Z,34.77
2022-12-04T19:10:34.738Z,35.37
2022-12-04T19:13:06.008Z,31.30
2022-12-04T19:15:37.231Z,37.63
2022-12-04T19:18:08.190Z,34.92
2022-12-04T19:20:42.837Z,34.83
2022-12-04T19:23:16.266Z,34.25
2022-12-04T19:25:47.043Z,39.87
2022-12-04T19:28:17.802Z,35.53
2022-12-04T19:30:48.542Z,36.60
2022-12-04T19:33:19.294Z,35.77
2022-12-04T19:35:59.903Z,32.60
2022-12-04T19:38:36.475Z,39.20
2022-12-04T19:41:15.057Z,35.95
2022-12-04T19:43:47.700Z,39.70
2022-12-04T19:46:21.348Z,35.25
2022-12-04T19:48:52.730Z,37.92
2022-12-04T19:51:24.576Z,37.80
2022-12-04T19:53:58.518Z,30.27
2022-12-04T19:56:30.857Z,32.63
2022-12-04T19:59:04.712Z,32.42
2022-12-04T20:01:38.749Z,35.88
2022-12-04T20:04:10.946Z,37.70
2022-12-04T20:06:43.419Z,34.60
2022-12-04T20:09:20.803Z,36.25
2022-12-04T20:11:51.595Z,34.00
2022-12-04T20:14:22.381Z,31.43
2022-12-04T20:16:54.869Z,33.00
2022-12-04T20:19:26.407Z,30.90
2022-12-04T20:21:59.633Z,36.08
2022-12-04T20:24:33.149Z,28.58
2022-12-04T20:27:04.020Z,33.92
2022-12-04T20:29:34.871Z,30.08
2022-12-04T20:32:08.083Z,30.40
2022-12-04T20:34:43.447Z,34.88
2022-12-04T20:37:16.012Z,33.60
2022-12-04T20:39:49.350Z,26.77
2022-12-04T20:42:20.172Z,29.83
2022-12-04T20:44:50.942Z,30.67
2022-12-04T20:47:21.763Z,28.57
2022-12-04T20:49:52.530Z,30.23
2022-12-04T20:52:23.186Z,26.98
2022-12-04T20:55:00.016Z,31.05
2022-12-04T20:57:33.022Z,29.07
2022-12-04T21:00:05.868Z,32.40
2022-12-04T21:02:38.217Z,30.00
2022-12-04T21:05:10.022Z,32.85
2022-12-04T21:07:40.837Z,32.00
2022-12-04T21:10:16.101Z,30.63
2022-12-04T21:12:59.317Z,30.52
2022-12-04T21:15:42.665Z,28.67
2022-12-04T21:18:13.427Z,29.58
2022-12-04T21:20:44.172Z,29.08
2022-12-04T21:23:15.292Z,29.50
2022-12-04T21:25:48.766Z,30.07
2022-12-04T21:28:19.547Z,29.30
2022-12-04T21:30:50.545Z,29.23
2022-12-04T21:33:21.782Z,28.45
2022-12-04T21:35:52.581Z,27.90
2022-12-04T21:38:23.380Z,31.47
2022-12-04T21:40:56.982Z,28.70
2022-12-04T21:43:27.721Z,31.48
2022-12-04T21:46:08.848Z,32.22
2022-12-04T21:48:41.218Z,26.58
2022-12-04T21:51:26.850Z,31.02
2022-12-04T21:54:03.444Z,29.73
2022-12-04T21:56:37.097Z,29.50
2022-12-04T21:59:08.190Z,31.87
2022-12-04T22:01:39.415Z,32.00
2022-12-04T22:04:10.182Z,28.15
2022-12-04T22:06:42.888Z,31.52
2022-12-04T22:09:15.112Z,30.60
2022-12-04T22:11:49.006Z,39.23
2022-12-04T22:14:20.902Z,32.88
2022-12-04T22:16:55.786Z,30.67
2022-12-04T22:19:26.634Z,31.47
2022-12-04T22:21:57.431Z,32.27
2022-12-04T22:24:28.833Z,30.93
2022-12-04T22:27:03.719Z,30.70
2022-12-04T22:29:49.781Z,30.90
2022-12-04T22:32:21.619Z,32.17
2022-12-04T22:34:52.541Z,32.05
2022-12-04T22:37:27.839Z,30.60
2022-12-04T22:39:58.989Z,31.60
2022-12-04T22:42:32.513Z,30.55
2022-12-04T22:45:05.490Z,31.33
2022-12-04T22:47:38.051Z,31.20
2022-12-04T22:50:12.049Z,29.55
2022-12-04T22:52:42.824Z,32.80
2022-12-04T22:55:13.566Z,30.33
2022-12-04T22:57:46.924Z,26.53
2022-12-04T23:00:18.501Z,28.92
2022-12-04T23:02:49.291Z,28.85
2022-12-04T23:05:20.387Z,29.77
2022-12-04T23:07:51.287Z,26.92
2022-12-04T23:10:22.079Z,29.43
2022-12-04T23:12:58.410Z,28.23
2022-12-04T23:15:29.123Z,28.80
2022-12-04T23:18:00.269Z,32.10
2022-12-04T23:20:31.005Z,26.65
2022-12-04T23:23:01.753Z,28.30
2022-12-04T23:25:35.089Z,28.35
2022-12-04T23:28:08.428Z,29.88
2022-12-04T23:30:40.922Z,28.13
2022-12-04T23:33:11.867Z,30.47
2022-12-04T23:35:42.653Z,29.87
2022-12-04T23:38:17.326Z,30.00
2022-12-04T23:40:48.343Z,28.48
2022-12-04T23:43:23.285Z,28.90
2022-12-04T23:45:54.004Z,26.42
2022-12-04T23:48:28.412Z,29.67
2022-12-04T23:50:59.127Z,34.35
2022-12-04T23:53:30.350Z,30.40
2022-12-04T23:56:02.655Z,27.87
2022-12-04T23:58:37.430Z,29.92
